Flight Track Log - Related Links

Times and Time Zones

All times are in EDT time to prevent confusion due to time zone crossing. See the SWA3675 flight status page for this flight to view local times or setup timezone preferences in your user account.

Time Position Orientation Groundspeed Altitude Reporting Facility
EDT Latitude Longitude Course Direction KTS MPH feet Rate Location/Type
Sun 07:53:19 PM 39.1500 -76.6500 142° Southeast 145 167 1,700  Level Potomac TRACON
Sun 07:54:13 PM 39.1167 -76.6167 142° Southeast 189 217 3,800 2,400 Climbing Potomac TRACON
Sun 07:55:19 PM 39.0500 -76.5667 150° Southeast 251 289 6,500 3,238 Climbing Potomac TRACON
Sun 07:56:19 PM 38.9833 -76.5333 159° South 274 315 10,600 3,400 Climbing Potomac TRACON
Sun 07:57:19 PM 38.9000 -76.5167 171° South 330 380 13,300 1,700 Climbing Potomac TRACON
Sun 07:58:19 PM 38.8000 -76.5167 180° South 340 391 14,000 256 Climbing Potomac TRACON
Sun 08:00:03 PM 38.6756 -76.6233 214° Southwest 354 407 14,000  Level Washington Center
Sun 08:01:01 PM 38.5997 -76.6914 215° Southwest 349 402 14,000  Level Washington Center
Sun 08:02:02 PM 38.5161 -76.7219 196° South 316 364 14,000  Level Washington Center
Sun 08:03:03 PM 38.4244 -76.7100 174° South 321 369 14,000  Level Washington Center
Sun 08:04:01 PM 38.3328 -76.6981 174° South 326 375 14,000  Level Washington Center
Sun 08:05:02 PM 38.2433 -76.6836 173° South 331 381 14,000  Level Washington Center
Sun 08:06:02 PM 38.1494 -76.6717 174° South 331 381 14,000  Level Washington Center
Sun 08:07:03 PM 38.0600 -76.6650 177° South 331 381 14,000  Level Washington Center
Sun 08:08:02 PM 37.9769 -76.6167 155° Southeast 331 381 14,000  Level Washington Center
Sun 08:09:02 PM 37.8961 -76.5550 149° Southeast 326 375 14,000  Level Washington Center
Sun 08:10:02 PM 37.8194 -76.4961 149° Southeast 332 382 14,000 -120 Level Washington Center
Sun 08:10:42 PM 37.7633 -76.4586 152° Southeast 331 381 13,800 -295 Descending Washington Center
Sun 08:11:03 PM 37.7489 -76.4428 139° Southeast 327 376 13,700 -1,400 Descending Washington Center
Sun 08:11:42 PM 37.6908 -76.4053 153° Southeast 293 337 12,400 -1,700 Descending Washington Center
Sun 08:12:03 PM 37.6722 -76.3867 142° Southeast 314 361 12,000 -1,475 Descending Washington Center
Sun 08:12:43 PM 37.6117 -76.3808 176° South 290 334 10,900 -1,448 Descending Washington Center
Sun 08:13:01 PM 37.5908 -76.3728 163° South 300 345 10,600 -900 Descending Washington Center
Sun 08:13:43 PM 37.5306 -76.3644 174° South 302 348 10,000 -600 Descending Washington Center
Sun 08:14:01 PM 37.5139 -76.3564 159° South 298 343 10,000  Level Washington Center
Sun 08:14:44 PM 37.4492 -76.3453 172° South 299 344 10,000  Level Washington Center
Sun 08:15:02 PM 37.4264 -76.3372 164° South 298 343 10,000  Level Washington Center
Sun 08:15:44 PM 37.3639 -76.3286 174° South 299 344 10,000  Level Washington Center
Sun 08:16:02 PM 37.3431 -76.3208 163° South 298 343 10,000  Level Washington Center
Sun 08:16:44 PM 37.2889 -76.3150 175° South 277 319 10,000  Level Washington Center
Sun 08:17:02 PM 37.2681 -76.3069 163° South 293 337 10,000 -1,215 Level Washington Center
Sun 08:18:03 PM 37.1992 -76.2933 171° South 287 330 8,400 -1,631 Descending Washington Center
Sun 08:18:45 PM 37.1386 -76.2850 174° South 274 315 7,200 -1,345 Descending Washington Center
Sun 08:19:01 PM 37.1242 -76.2794 163° South 282 325 7,100 -1,034 Descending Washington Center
Sun 08:19:43 PM 37.0719 -76.2739 175° South 262 302 6,200 -1,588 Descending Washington Center
Sun 08:20:43 PM 36.9969 -76.2578 170° South 257 296 4,400 -1,488 Descending Washington Center
Sun 08:21:44 PM 36.9239 -76.2647 184° South 269 310 3,200 -706 Descending Washington Center
Sun 08:22:42 PM 36.8756 -76.3292 227° Southwest 236 272 3,000 -101 Descending Washington Center
Sun 08:23:43 PM 36.8272 -76.3833 222° Southwest 233 268 3,000 -246 Level Washington Center
Sun 08:24:44 PM 36.7728 -76.4114 202° Southwest 189 217 2,500 -656 Descending Washington Center
Sun 08:25:51 PM 36.7522 -76.3644 119° Southeast 138 159 1,600 -422 Descending Washington Center
Sun 08:26:52 PM 36.7733 -76.3206 59° Northeast 146 168 1,600  Level Washington Center
Sun 08:27:53 PM 36.8069 -76.2897 36° Northeast 152 175 1,600 -141 Level Washington Center
Sun 08:29:00 PM 36.8406 -76.2564 38° Northeast 138 159 1,300 -472 Descending Washington Center
Sun 08:30:00 PM 36.8678 -76.2281 40° Northeast 121 139 600 -700 Descending Washington Center

Login

Don't have an account? Register now (free) for customized features, flight alerts, and more!